createdAt,value
2023-02-12T00:00:04.015Z,35.20
2023-02-12T00:01:02.963Z,35.20
2023-02-12T00:02:02.254Z,35.40
2023-02-12T00:03:02.262Z,35.40
2023-02-12T00:04:02.602Z,35.40
2023-02-12T00:05:02.515Z,35.40
2023-02-12T00:06:02.739Z,35.40
2023-02-12T00:07:03.202Z,35.10
2023-02-12T00:08:02.830Z,35.10
2023-02-12T00:09:02.907Z,35.10
2023-02-12T00:10:02.710Z,35.10
2023-02-12T00:11:03.189Z,35.10
2023-02-12T00:12:02.976Z,33.60
2023-02-12T00:13:03.317Z,33.60
2023-02-12T00:14:03.341Z,33.60
2023-02-12T00:15:03.013Z,33.60
2023-02-12T00:16:03.216Z,33.60
2023-02-12T00:17:02.269Z,32.50
2023-02-12T00:18:02.128Z,32.50
2023-02-12T00:19:02.170Z,32.50
2023-02-12T00:20:02.206Z,32.50
2023-02-12T00:21:02.259Z,32.50
2023-02-12T00:22:02.555Z,32.80
2023-02-12T00:23:02.149Z,32.80
2023-02-12T00:24:02.641Z,32.80
2023-02-12T00:25:02.359Z,32.80
2023-02-12T00:26:02.126Z,32.80
2023-02-12T00:27:02.759Z,32.00
2023-02-12T00:28:03.157Z,32.00
2023-02-12T00:29:03.078Z,32.00
2023-02-12T00:30:02.740Z,32.00
2023-02-12T00:31:03.240Z,32.00
2023-02-12T00:32:02.113Z,32.40
2023-02-12T00:33:01.914Z,32.40
2023-02-12T00:34:02.262Z,32.40
2023-02-12T00:35:02.260Z,32.40
2023-02-12T00:36:02.338Z,32.40
2023-02-12T00:37:02.135Z,33.70
2023-02-12T00:38:02.606Z,33.70
2023-02-12T00:39:02.205Z,33.70
2023-02-12T00:40:02.204Z,33.70
2023-02-12T00:41:02.287Z,33.70
2023-02-12T00:42:02.281Z,33.30
2023-02-12T00:43:02.135Z,33.30
2023-02-12T00:44:02.031Z,33.30
2023-02-12T00:45:01.970Z,33.30
2023-02-12T00:46:02.091Z,33.30
2023-02-12T00:47:02.153Z,39.80
2023-02-12T00:48:01.827Z,39.80
2023-02-12T00:49:01.972Z,39.80
2023-02-12T00:50:01.857Z,39.80
2023-02-12T00:51:02.143Z,39.80
2023-02-12T00:52:01.971Z,33.30
2023-02-12T00:53:02.543Z,33.30
2023-02-12T00:54:02.383Z,33.30
2023-02-12T00:55:02.369Z,33.30
2023-02-12T00:56:02.092Z,33.30
2023-02-12T00:57:02.701Z,36.40
2023-02-12T00:58:02.818Z,36.40
2023-02-12T00:59:02.723Z,36.40
2023-02-12T01:00:02.728Z,36.40
2023-02-12T01:01:02.905Z,36.40
2023-02-12T01:02:01.720Z,34.00
2023-02-12T01:03:01.615Z,34.00
2023-02-12T01:04:01.803Z,34.00
2023-02-12T01:05:01.900Z,34.00
2023-02-12T01:06:01.832Z,34.00
2023-02-12T01:07:02.258Z,31.60
2023-02-12T01:08:02.199Z,31.60
2023-02-12T01:09:02.179Z,31.60
2023-02-12T01:10:01.831Z,31.60
2023-02-12T01:11:01.688Z,31.60
2023-02-12T01:12:02.894Z,32.30
2023-02-12T01:13:02.727Z,32.30
2023-02-12T01:14:02.712Z,32.30
2023-02-12T01:15:02.677Z,32.30
2023-02-12T01:16:02.604Z,32.30
2023-02-12T01:17:02.589Z,32.20
2023-02-12T01:18:02.691Z,32.20
2023-02-12T01:19:02.368Z,32.20
2023-02-12T01:20:02.927Z,32.20
2023-02-12T01:21:02.415Z,32.20
2023-02-12T01:22:02.533Z,32.40
2023-02-12T01:23:02.846Z,32.40
2023-02-12T01:24:02.788Z,32.40
2023-02-12T01:25:02.749Z,32.40
2023-02-12T01:26:02.810Z,32.40
2023-02-12T01:27:01.850Z,33.20
2023-02-12T01:28:01.570Z,33.20
2023-02-12T01:29:02.006Z,33.20
2023-02-12T01:30:01.627Z,33.20
2023-02-12T01:31:01.935Z,33.20
2023-02-12T01:32:01.981Z,34.00
2023-02-12T01:33:01.579Z,34.00
2023-02-12T01:34:02.231Z,34.00
2023-02-12T01:35:02.106Z,34.00
2023-02-12T01:36:01.856Z,34.00
2023-02-12T01:37:02.432Z,32.60
2023-02-12T01:38:02.354Z,32.60
2023-02-12T01:39:02.358Z,32.60
2023-02-12T01:40:02.227Z,32.60
2023-02-12T01:41:02.408Z,32.60
2023-02-12T01:42:01.885Z,30.90
2023-02-12T01:43:01.448Z,30.90
2023-02-12T01:44:01.772Z,30.90
2023-02-12T01:45:01.797Z,30.90
2023-02-12T01:46:01.586Z,30.90
2023-02-12T01:47:01.868Z,32.90
2023-02-12T01:48:01.623Z,32.90
2023-02-12T01:49:01.847Z,32.90
2023-02-12T01:50:01.769Z,32.90
2023-02-12T01:51:02.066Z,32.90
2023-02-12T01:52:02.245Z,30.90
2023-02-12T01:53:02.359Z,30.90
2023-02-12T01:54:02.645Z,30.90
2023-02-12T01:55:02.605Z,30.90
2023-02-12T01:56:02.690Z,30.90
2023-02-12T01:57:02.212Z,30.90
2023-02-12T01:58:01.961Z,30.90
2023-02-12T01:59:01.919Z,30.90
2023-02-12T02:00:02.259Z,30.90
2023-02-12T02:01:02.014Z,30.90
2023-02-12T02:02:02.622Z,30.40
2023-02-12T02:03:02.769Z,30.40
2023-02-12T02:04:02.433Z,30.40
2023-02-12T02:05:02.332Z,30.40
2023-02-12T02:06:02.693Z,30.40
2023-02-12T02:07:03.187Z,29.40
2023-02-12T02:08:03.366Z,29.40
2023-02-12T02:09:02.892Z,29.40
2023-02-12T02:10:03.398Z,29.40
2023-02-12T02:11:03.439Z,29.40
2023-02-12T02:12:02.249Z,29.10
2023-02-12T02:13:02.778Z,29.10
2023-02-12T02:14:02.812Z,29.10
2023-02-12T02:15:02.349Z,29.10
2023-02-12T02:16:02.334Z,29.10
2023-02-12T02:17:02.618Z,30.00
2023-02-12T02:18:02.766Z,30.00
2023-02-12T02:19:03.117Z,30.00
2023-02-12T02:20:03.130Z,30.00
2023-02-12T02:21:02.542Z,30.00
2023-02-12T02:22:02.755Z,30.80
2023-02-12T02:23:02.660Z,30.80
2023-02-12T02:24:03.095Z,30.80
2023-02-12T02:25:02.717Z,30.80
2023-02-12T02:26:03.261Z,30.80
2023-02-12T02:27:02.806Z,30.20
2023-02-12T02:28:02.409Z,30.20
2023-02-12T02:29:02.255Z,30.20
2023-02-12T02:30:02.616Z,30.20
2023-02-12T02:31:02.780Z,30.20
2023-02-12T02:32:02.958Z,28.60
2023-02-12T02:33:02.692Z,28.60
2023-02-12T02:34:03.697Z,28.60
2023-02-12T02:35:03.236Z,28.60
2023-02-12T02:36:02.651Z,28.60
2023-02-12T02:37:03.081Z,28.70
2023-02-12T02:38:02.934Z,28.70
2023-02-12T02:39:02.989Z,28.70
2023-02-12T02:40:02.883Z,28.70
2023-02-12T02:41:03.270Z,28.70
2023-02-12T02:42:02.172Z,29.30
2023-02-12T02:43:02.537Z,29.30
2023-02-12T02:44:02.448Z,29.30
2023-02-12T02:45:02.672Z,29.30
2023-02-12T02:46:02.459Z,29.30
2023-02-12T02:47:03.036Z,30.60
2023-02-12T02:48:02.725Z,30.60
2023-02-12T02:49:03.129Z,30.60
2023-02-12T02:50:02.556Z,30.60
2023-02-12T02:51:02.704Z,30.60
2023-02-12T02:52:03.043Z,31.90
2023-02-12T02:53:02.819Z,31.90
2023-02-12T02:54:02.750Z,31.90
2023-02-12T02:55:03.317Z,31.90
2023-02-12T02:56:03.288Z,31.90
2023-02-12T02:57:02.091Z,32.30
2023-02-12T02:58:02.359Z,32.30
2023-02-12T02:59:02.424Z,32.30
2023-02-12T03:00:02.161Z,32.30
2023-02-12T03:01:02.200Z,32.30
2023-02-12T03:02:02.620Z,30.60
2023-02-12T03:03:02.642Z,30.60
2023-02-12T03:04:02.517Z,30.60
2023-02-12T03:05:02.375Z,30.60
2023-02-12T03:06:02.455Z,30.60
2023-02-12T03:07:02.904Z,32.00
2023-02-12T03:08:03.164Z,32.00
2023-02-12T03:09:02.863Z,32.00
2023-02-12T03:10:03.070Z,32.00
2023-02-12T03:11:02.967Z,32.00
2023-02-12T03:12:02.489Z,30.20
2023-02-12T03:13:02.043Z,30.20
2023-02-12T03:14:02.200Z,30.20
2023-02-12T03:15:02.537Z,30.20
2023-02-12T03:16:02.405Z,30.20
2023-02-12T03:17:02.586Z,29.80
2023-02-12T03:18:02.512Z,29.80
2023-02-12T03:19:02.341Z,29.80
2023-02-12T03:20:02.566Z,29.80
2023-02-12T03:21:02.594Z,29.80
2023-02-12T03:22:03.134Z,28.50
2023-02-12T03:23:03.056Z,28.50
2023-02-12T03:24:03.041Z,28.50
2023-02-12T03:25:03.137Z,28.50
2023-02-12T03:26:02.762Z,28.50
2023-02-12T03:27:03.115Z,27.20
2023-02-12T03:28:03.220Z,27.20
2023-02-12T03:29:02.792Z,27.20
2023-02-12T03:30:02.631Z,27.20
2023-02-12T03:31:02.755Z,27.20
2023-02-12T03:32:02.940Z,28.10
2023-02-12T03:33:02.782Z,28.10
2023-02-12T03:34:02.794Z,28.10
2023-02-12T03:35:03.308Z,28.10
2023-02-12T03:36:03.139Z,28.10
2023-02-12T03:37:02.506Z,27.60
2023-02-12T03:38:02.238Z,27.60
2023-02-12T03:39:02.016Z,27.60
2023-02-12T03:40:02.307Z,27.60
2023-02-12T03:41:02.233Z,27.60
2023-02-12T03:42:02.118Z,27.60
2023-02-12T03:43:02.265Z,27.60
2023-02-12T03:44:02.440Z,27.60
2023-02-12T03:45:02.488Z,27.60
2023-02-12T03:46:02.161Z,27.60
2023-02-12T03:47:02.191Z,29.10
2023-02-12T03:48:02.318Z,29.10
2023-02-12T03:49:02.079Z,29.10
2023-02-12T03:50:02.586Z,29.10
2023-02-12T03:51:02.365Z,29.10
2023-02-12T03:52:02.217Z,29.00
2023-02-12T03:53:02.304Z,29.00
2023-02-12T03:54:02.153Z,29.00
2023-02-12T03:55:02.723Z,29.00
2023-02-12T03:56:02.309Z,29.00
2023-02-12T03:57:02.367Z,28.90
2023-02-12T03:58:02.182Z,28.90
2023-02-12T03:59:02.417Z,28.90
2023-02-12T04:00:02.351Z,28.90
2023-02-12T04:01:02.340Z,28.90
2023-02-12T04:02:03.505Z,28.50
2023-02-12T04:03:02.782Z,28.50
2023-02-12T04:04:03.141Z,28.50
2023-02-12T04:05:02.889Z,28.50
2023-02-12T04:06:03.332Z,28.50
2023-02-12T04:07:03.278Z,30.30
2023-02-12T04:08:03.476Z,30.30
2023-02-12T04:09:03.342Z,30.30
2023-02-12T04:10:03.560Z,30.30
2023-02-12T04:11:03.430Z,30.30
2023-02-12T04:12:02.676Z,32.50
2023-02-12T04:13:03.112Z,32.50
2023-02-12T04:14:02.735Z,32.50
2023-02-12T04:15:02.811Z,32.50
2023-02-12T04:16:02.589Z,32.50
2023-02-12T04:17:03.021Z,30.50
2023-02-12T04:18:03.051Z,30.50
2023-02-12T04:19:02.957Z,30.50
2023-02-12T04:20:03.030Z,30.50
2023-02-12T04:21:02.753Z,30.50
2023-02-12T04:22:02.823Z,31.60
2023-02-12T04:23:03.015Z,31.60
2023-02-12T04:24:02.604Z,31.60
2023-02-12T04:25:03.126Z,31.60
2023-02-12T04:26:02.839Z,31.60
2023-02-12T04:27:02.403Z,33.50
2023-02-12T04:28:02.638Z,33.50
2023-02-12T04:29:02.648Z,33.50
2023-02-12T04:30:02.370Z,33.50
2023-02-12T04:31:02.394Z,33.50
2023-02-12T04:32:02.620Z,32.40
2023-02-12T04:33:03.010Z,32.40
2023-02-12T04:34:02.565Z,32.40
2023-02-12T04:35:02.922Z,32.40
2023-02-12T04:36:03.108Z,32.40
2023-02-12T04:37:02.997Z,33.00
2023-02-12T04:38:02.921Z,33.00
2023-02-12T04:39:03.219Z,33.00
2023-02-12T04:40:02.962Z,33.00
2023-02-12T04:41:02.733Z,33.00
2023-02-12T04:42:03.012Z,29.40
2023-02-12T04:43:03.143Z,29.40
2023-02-12T04:44:02.955Z,29.40
2023-02-12T04:45:03.244Z,29.40
2023-02-12T04:46:03.542Z,29.40
2023-02-12T04:47:02.439Z,29.60
2023-02-12T04:48:02.905Z,29.60
2023-02-12T04:49:02.544Z,29.60
2023-02-12T04:50:02.641Z,29.60
2023-02-12T04:51:02.858Z,29.60
2023-02-12T04:52:02.696Z,33.20
2023-02-12T04:53:02.855Z,33.20
2023-02-12T04:54:02.867Z,33.20
2023-02-12T04:55:02.680Z,33.20
2023-02-12T04:56:03.228Z,33.20
2023-02-12T04:57:02.612Z,32.30
2023-02-12T04:58:02.784Z,32.30
2023-02-12T04:59:02.569Z,32.30
2023-02-12T05:00:02.595Z,32.30
2023-02-12T05:01:02.504Z,32.30
2023-02-12T05:02:03.464Z,31.40
2023-02-12T05:03:03.262Z,31.40
2023-02-12T05:04:02.809Z,31.40
2023-02-12T05:05:03.220Z,31.40
2023-02-12T05:06:03.053Z,31.40
2023-02-12T05:07:02.663Z,31.20
2023-02-12T05:08:02.421Z,31.20
2023-02-12T05:09:02.965Z,31.20
2023-02-12T05:10:02.930Z,31.20
2023-02-12T05:11:02.678Z,31.20
2023-02-12T05:12:02.934Z,32.40
2023-02-12T05:13:03.027Z,32.40
2023-02-12T05:14:03.045Z,32.40
2023-02-12T05:15:03.184Z,32.40
2023-02-12T05:16:03.035Z,32.40
2023-02-12T05:17:02.776Z,33.20
2023-02-12T05:18:02.618Z,33.20
2023-02-12T05:19:02.799Z,33.20
2023-02-12T05:20:02.702Z,33.20
2023-02-12T05:21:02.953Z,33.20
2023-02-12T05:22:03.155Z,33.40
2023-02-12T05:23:03.127Z,33.40
2023-02-12T05:24:02.890Z,33.40
2023-02-12T05:25:02.735Z,33.40
2023-02-12T05:26:03.012Z,33.40
2023-02-12T05:27:03.297Z,32.70
2023-02-12T05:28:03.851Z,32.70
2023-02-12T05:29:03.471Z,32.70
2023-02-12T05:30:03.550Z,32.70
2023-02-12T05:31:03.574Z,32.70
2023-02-12T05:32:03.126Z,32.20
2023-02-12T05:33:02.733Z,32.20
2023-02-12T05:34:02.785Z,32.20
2023-02-12T05:35:02.519Z,32.20
2023-02-12T05:36:02.731Z,32.20
2023-02-12T05:37:02.893Z,32.30
2023-02-12T05:38:03.409Z,32.30
2023-02-12T05:39:02.968Z,32.30
2023-02-12T05:40:03.193Z,32.30
2023-02-12T05:41:03.152Z,32.30
2023-02-12T05:42:02.265Z,31.00
2023-02-12T05:43:02.767Z,31.00
2023-02-12T05:44:02.522Z,31.00
2023-02-12T05:45:02.813Z,31.00
2023-02-12T05:46:02.519Z,31.00
2023-02-12T05:47:03.089Z,31.50
2023-02-12T05:48:03.136Z,31.50
2023-02-12T05:49:02.944Z,31.50
2023-02-12T05:50:02.926Z,31.50
2023-02-12T05:51:02.978Z,31.50
2023-02-12T05:52:03.431Z,29.00
2023-02-12T05:53:03.526Z,29.00
2023-02-12T05:54:03.055Z,29.00
2023-02-12T05:55:03.284Z,29.00
2023-02-12T05:56:03.418Z,29.00
2023-02-12T05:57:02.881Z,35.50
2023-02-12T05:58:03.068Z,35.50
2023-02-12T05:59:02.658Z,35.50
2023-02-12T06:00:03.141Z,35.50
2023-02-12T06:01:02.933Z,35.50
2023-02-12T06:02:02.420Z,36.00
2023-02-12T06:03:02.486Z,36.00
2023-02-12T06:04:02.383Z,36.00
2023-02-12T06:05:02.608Z,36.00
2023-02-12T06:06:02.375Z,36.00
2023-02-12T06:07:02.425Z,32.70
2023-02-12T06:08:02.510Z,32.70
2023-02-12T06:09:02.672Z,32.70
2023-02-12T06:10:02.828Z,32.70
2023-02-12T06:11:02.626Z,32.70
2023-02-12T06:12:01.818Z,32.40
2023-02-12T06:13:02.189Z,32.40
2023-02-12T06:14:01.935Z,32.40
2023-02-12T06:15:01.847Z,32.40
2023-02-12T06:16:02.185Z,32.40
2023-02-12T06:17:02.405Z,32.80
2023-02-12T06:18:02.462Z,32.80
2023-02-12T06:19:02.857Z,32.80
2023-02-12T06:20:02.305Z,32.80
2023-02-12T06:21:02.723Z,32.80
2023-02-12T06:22:01.680Z,31.10
2023-02-12T06:23:02.339Z,31.10
2023-02-12T06:24:01.716Z,31.10
2023-02-12T06:25:02.149Z,31.10
2023-02-12T06:26:01.771Z,31.10
2023-02-12T06:27:02.777Z,30.80
2023-02-12T06:28:02.393Z,30.80
2023-02-12T06:29:02.310Z,30.80
2023-02-12T06:30:02.676Z,30.80
2023-02-12T06:31:02.549Z,30.80
2023-02-12T06:32:02.117Z,31.70
2023-02-12T06:33:02.408Z,31.70
2023-02-12T06:34:02.488Z,31.70
2023-02-12T06:35:02.541Z,31.70
2023-02-12T06:36:02.321Z,31.70
2023-02-12T06:37:02.374Z,34.70
2023-02-12T06:38:02.551Z,34.70
2023-02-12T06:39:02.317Z,34.70
2023-02-12T06:40:02.579Z,34.70
2023-02-12T06:41:02.196Z,34.70
2023-02-12T06:42:01.584Z,36.50
2023-02-12T06:43:01.436Z,36.50
2023-02-12T06:44:01.572Z,36.50
2023-02-12T06:45:01.538Z,36.50
2023-02-12T06:46:01.410Z,36.50
2023-02-12T06:47:02.311Z,35.40
2023-02-12T06:48:02.283Z,35.40
2023-02-12T06:49:02.380Z,35.40
2023-02-12T06:50:02.139Z,35.40
2023-02-12T06:51:02.046Z,35.40
2023-02-12T06:52:03.455Z,32.90
2023-02-12T06:53:02.648Z,32.90
2023-02-12T06:54:02.274Z,32.90
2023-02-12T06:55:02.691Z,32.90
2023-02-12T06:56:02.286Z,32.90
2023-02-12T06:57:02.496Z,32.20
2023-02-12T06:58:02.481Z,32.20
2023-02-12T06:59:02.521Z,32.20
2023-02-12T07:00:02.606Z,32.20
2023-02-12T07:01:02.189Z,32.20
2023-02-12T07:02:03.446Z,30.70
2023-02-12T07:03:02.889Z,30.70
2023-02-12T07:04:03.457Z,30.70
2023-02-12T07:05:02.819Z,30.70
2023-02-12T07:06:03.343Z,30.70
2023-02-12T07:07:03.665Z,31.50
2023-02-12T07:08:03.329Z,31.50
2023-02-12T07:09:03.921Z,31.50
2023-02-12T07:10:03.298Z,31.50
2023-02-12T07:11:03.729Z,31.50
2023-02-12T07:12:03.185Z,32.00
2023-02-12T07:13:02.886Z,32.00
2023-02-12T07:14:03.293Z,32.00
2023-02-12T07:15:02.872Z,32.00
2023-02-12T07:16:02.875Z,32.00
2023-02-12T07:17:02.941Z,43.20
2023-02-12T07:18:03.203Z,43.20
2023-02-12T07:19:03.410Z,43.20
2023-02-12T07:20:03.186Z,43.20
2023-02-12T07:21:03.252Z,43.20
2023-02-12T07:22:03.372Z,43.50
2023-02-12T07:23:03.508Z,43.50
2023-02-12T07:24:03.104Z,43.50
2023-02-12T07:25:03.240Z,43.50
2023-02-12T07:26:03.285Z,43.50
2023-02-12T07:27:02.830Z,39.10
2023-02-12T07:28:03.392Z,39.10
2023-02-12T07:29:02.822Z,39.10
2023-02-12T07:30:03.092Z,39.10
2023-02-12T07:31:03.157Z,39.10
2023-02-12T07:32:03.447Z,37.70
2023-02-12T07:33:03.734Z,37.70
2023-02-12T07:34:03.560Z,37.70
2023-02-12T07:35:03.368Z,37.70
2023-02-12T07:36:03.348Z,37.70
2023-02-12T07:37:03.098Z,38.60
2023-02-12T07:38:03.233Z,38.60
2023-02-12T07:39:02.896Z,38.60
2023-02-12T07:40:03.006Z,38.60
2023-02-12T07:41:03.071Z,38.60
2023-02-12T07:42:03.429Z,38.30
2023-02-12T07:43:03.288Z,38.30
2023-02-12T07:44:03.168Z,38.30
2023-02-12T07:45:03.646Z,38.30
2023-02-12T07:46:03.466Z,37.40
2023-02-12T07:47:02.692Z,37.40
2023-02-12T07:48:02.749Z,37.40
2023-02-12T07:49:02.694Z,37.40
2023-02-12T07:50:02.844Z,37.40
2023-02-12T07:51:02.752Z,37.40
2023-02-12T07:52:03.450Z,39.30
2023-02-12T07:53:03.449Z,39.30
2023-02-12T07:54:03.295Z,39.30
2023-02-12T07:55:03.483Z,39.30
2023-02-12T07:56:02.936Z,38.80
2023-02-12T07:57:02.942Z,38.80
2023-02-12T07:58:02.868Z,38.80
2023-02-12T07:59:02.962Z,38.80
2023-02-12T08:00:03.038Z,38.80
2023-02-12T08:01:03.007Z,40.00
2023-02-12T08:02:02.620Z,40.00
2023-02-12T08:03:02.453Z,40.00
2023-02-12T08:04:02.030Z,40.00
2023-02-12T08:05:02.420Z,40.00
2023-02-12T08:06:02.156Z,40.00
2023-02-12T08:07:02.841Z,37.30
2023-02-12T08:08:02.956Z,37.30
2023-02-12T08:09:02.896Z,37.30
2023-02-12T08:10:03.150Z,37.30
2023-02-12T08:11:03.136Z,36.80
2023-02-12T08:12:02.742Z,36.80
2023-02-12T08:13:02.401Z,36.80
2023-02-12T08:14:02.280Z,36.80
2023-02-12T08:15:02.255Z,36.80
2023-02-12T08:16:02.777Z,37.90
2023-02-12T08:17:03.244Z,37.90
2023-02-12T08:18:02.737Z,37.90
2023-02-12T08:19:16.113Z,37.90
2023-02-12T08:20:03.224Z,37.90
2023-02-12T08:21:02.872Z,36.30
2023-02-12T08:22:02.487Z,36.30
2023-02-12T08:23:02.097Z,36.30
2023-02-12T08:24:02.213Z,36.30
2023-02-12T08:25:02.086Z,36.30
2023-02-12T08:26:01.999Z,36.80
2023-02-12T08:27:02.711Z,36.80
2023-02-12T08:28:02.201Z,36.80
2023-02-12T08:29:02.625Z,36.80
2023-02-12T08:30:02.726Z,36.80
2023-02-12T08:31:02.833Z,37.90
2023-02-12T08:32:02.302Z,37.90
2023-02-12T08:33:02.541Z,37.90
2023-02-12T08:34:02.052Z,37.90
2023-02-12T08:35:02.305Z,37.90
2023-02-12T08:36:02.752Z,45.90
2023-02-12T08:37:02.848Z,45.90
2023-02-12T08:38:02.791Z,45.90
2023-02-12T08:39:02.841Z,45.90
2023-02-12T08:40:03.177Z,45.90
2023-02-12T08:41:02.594Z,40.90
2023-02-12T08:42:02.753Z,40.90
2023-02-12T08:43:02.162Z,40.90
2023-02-12T08:44:02.568Z,40.90
2023-02-12T08:45:02.598Z,40.90
2023-02-12T08:46:02.111Z,40.10
2023-02-12T08:47:01.773Z,40.10
2023-02-12T08:48:02.304Z,40.10
2023-02-12T08:49:02.261Z,40.10
2023-02-12T08:50:02.153Z,40.10
2023-02-12T08:51:01.967Z,45.90
2023-02-12T08:52:01.962Z,45.90
2023-02-12T08:53:01.824Z,45.90
2023-02-12T08:54:02.001Z,45.90
2023-02-12T08:55:02.212Z,45.90
2023-02-12T08:56:02.223Z,49.60
2023-02-12T08:57:02.539Z,49.60
2023-02-12T08:58:02.504Z,49.60
2023-02-12T08:59:02.336Z,49.60
2023-02-12T09:00:02.250Z,49.60
2023-02-12T09:01:02.814Z,50.20
2023-02-12T09:02:03.028Z,50.20
2023-02-12T09:03:02.959Z,50.20
2023-02-12T09:04:02.393Z,50.20
2023-02-12T09:05:03.025Z,50.20
2023-02-12T09:06:02.929Z,46.40
2023-02-12T09:07:02.567Z,46.40
2023-02-12T09:08:03.054Z,46.40
2023-02-12T09:09:02.908Z,46.40
2023-02-12T09:10:02.932Z,46.40
2023-02-12T09:11:02.633Z,41.60
2023-02-12T09:12:02.752Z,41.60
2023-02-12T09:13:02.835Z,41.60
2023-02-12T09:14:02.876Z,41.60
2023-02-12T09:15:03.084Z,41.60
2023-02-12T09:16:02.820Z,44.20
2023-02-12T09:17:02.483Z,44.20
2023-02-12T09:18:02.650Z,44.20
2023-02-12T09:19:02.581Z,44.20
2023-02-12T09:20:02.932Z,44.20
2023-02-12T09:21:02.860Z,44.70
2023-02-12T09:22:02.982Z,44.70
2023-02-12T09:23:03.508Z,44.70
2023-02-12T09:24:03.607Z,44.70
2023-02-12T09:25:03.027Z,44.70
2023-02-12T09:26:03.353Z,45.30
2023-02-12T09:27:02.914Z,45.30
2023-02-12T09:28:02.938Z,45.30
2023-02-12T09:29:02.962Z,45.30
2023-02-12T09:30:02.937Z,45.30
2023-02-12T09:31:03.200Z,49.50
2023-02-12T09:32:03.310Z,49.50
2023-02-12T09:33:02.890Z,49.50
2023-02-12T09:34:03.183Z,49.50
2023-02-12T09:35:03.367Z,49.50
2023-02-12T09:36:03.324Z,46.30
2023-02-12T09:37:02.796Z,46.30
2023-02-12T09:38:02.427Z,46.30
2023-02-12T09:39:02.853Z,46.30
2023-02-12T09:40:02.755Z,46.30
2023-02-12T09:41:02.716Z,48.50
2023-02-12T09:42:02.608Z,48.50
2023-02-12T09:43:02.401Z,48.50
2023-02-12T09:44:02.151Z,48.50
2023-02-12T09:45:02.297Z,48.50
2023-02-12T09:46:02.071Z,47.90
2023-02-12T09:47:02.735Z,47.90
2023-02-12T09:48:02.331Z,47.90
2023-02-12T09:49:02.466Z,47.90
2023-02-12T09:50:02.349Z,47.90
2023-02-12T09:51:02.485Z,50.20
2023-02-12T09:52:02.960Z,50.20
2023-02-12T09:53:02.964Z,50.20
2023-02-12T09:54:02.916Z,50.20
2023-02-12T09:55:03.339Z,50.20
2023-02-12T09:56:02.757Z,47.30
2023-02-12T09:57:03.076Z,47.30
2023-02-12T09:58:03.357Z,47.30
2023-02-12T09:59:03.049Z,47.30
2023-02-12T10:00:03.410Z,47.30
2023-02-12T10:01:03.015Z,47.30
2023-02-12T10:02:02.593Z,47.30
2023-02-12T10:03:05.083Z,47.30
2023-02-12T10:04:03.055Z,47.30
2023-02-12T10:05:03.165Z,47.30
2023-02-12T10:06:02.695Z,46.70
2023-02-12T10:07:03.194Z,46.70
2023-02-12T10:08:03.064Z,46.70
2023-02-12T10:09:02.832Z,46.70
2023-02-12T10:10:02.972Z,46.70
2023-02-12T10:11:02.904Z,45.70
2023-02-12T10:12:03.336Z,45.70
2023-02-12T10:13:03.472Z,45.70
2023-02-12T10:14:03.407Z,45.70
2023-02-12T10:15:03.646Z,45.70
2023-02-12T10:16:03.328Z,44.80
2023-02-12T10:17:02.988Z,44.80
2023-02-12T10:18:02.904Z,44.80
2023-02-12T10:19:02.867Z,44.80
2023-02-12T10:20:03.000Z,44.80
2023-02-12T10:21:03.057Z,45.20
2023-02-12T10:22:03.233Z,45.20
2023-02-12T10:23:03.177Z,45.20
2023-02-12T10:24:03.340Z,45.20
2023-02-12T10:25:02.923Z,45.20
2023-02-12T10:26:02.930Z,44.10
2023-02-12T10:27:03.442Z,44.10
2023-02-12T10:28:03.310Z,44.10
2023-02-12T10:29:03.596Z,44.10
2023-02-12T10:30:03.504Z,44.10
2023-02-12T10:31:03.831Z,43.20
2023-02-12T10:32:03.135Z,43.20
2023-02-12T10:33:02.786Z,43.20
2023-02-12T10:34:02.929Z,43.20
2023-02-12T10:35:03.040Z,43.20
2023-02-12T10:36:02.774Z,43.80
2023-02-12T10:37:02.845Z,43.80
2023-02-12T10:38:02.542Z,43.80
2023-02-12T10:39:02.608Z,43.80
2023-02-12T10:40:02.928Z,43.80
2023-02-12T10:41:02.802Z,38.00
2023-02-12T10:42:03.290Z,38.00
2023-02-12T10:43:03.661Z,38.00
2023-02-12T10:44:03.402Z,38.00
2023-02-12T10:45:03.123Z,38.00
2023-02-12T10:46:03.239Z,38.20
2023-02-12T10:47:02.690Z,38.20
2023-02-12T10:48:03.000Z,38.20
2023-02-12T10:49:03.024Z,38.20
2023-02-12T10:50:02.858Z,38.20
2023-02-12T10:51:02.595Z,37.30
2023-02-12T10:52:03.604Z,37.30
2023-02-12T10:53:03.325Z,37.30
2023-02-12T10:54:05.365Z,37.30
2023-02-12T10:55:03.192Z,37.30
2023-02-12T10:56:03.408Z,36.30
2023-02-12T10:57:02.906Z,36.30
2023-02-12T10:58:02.629Z,36.30
2023-02-12T10:59:02.360Z,36.30
2023-02-12T11:00:02.325Z,36.30
2023-02-12T11:01:02.631Z,35.80
2023-02-12T11:02:03.312Z,35.80
2023-02-12T11:03:02.816Z,35.80
2023-02-12T11:04:02.772Z,35.80
2023-02-12T11:05:02.917Z,35.80
2023-02-12T11:06:02.761Z,36.30
2023-02-12T11:07:03.418Z,36.30
2023-02-12T11:08:03.034Z,36.30
2023-02-12T11:09:02.896Z,36.30
2023-02-12T11:10:03.096Z,36.30
2023-02-12T11:11:02.946Z,36.40
2023-02-12T11:12:03.109Z,36.40
2023-02-12T11:13:02.728Z,36.40
2023-02-12T11:14:03.086Z,36.40
2023-02-12T11:15:02.863Z,36.40
2023-02-12T11:16:03.499Z,33.10
2023-02-12T11:17:03.130Z,33.10
2023-02-12T11:18:04.557Z,33.10
2023-02-12T11:19:02.926Z,33.10
2023-02-12T11:20:02.614Z,33.10
2023-02-12T11:21:02.680Z,33.40
2023-02-12T11:22:03.465Z,33.40
2023-02-12T11:23:03.325Z,33.40
2023-02-12T11:24:04.900Z,33.40
2023-02-12T11:25:03.167Z,33.40
2023-02-12T11:26:03.465Z,32.40
2023-02-12T11:27:03.626Z,32.40
2023-02-12T11:28:03.094Z,32.40
2023-02-12T11:29:03.700Z,32.40
2023-02-12T11:30:02.985Z,32.40
2023-02-12T11:31:03.237Z,31.70
2023-02-12T11:32:02.262Z,31.70
2023-02-12T11:33:02.448Z,31.70
2023-02-12T11:34:02.694Z,31.70
2023-02-12T11:35:02.374Z,31.70
2023-02-12T11:36:05.643Z,31.10
2023-02-12T11:37:02.292Z,31.10
2023-02-12T11:38:02.907Z,31.10
2023-02-12T11:39:02.360Z,31.10
2023-02-12T11:40:02.540Z,31.10
2023-02-12T11:41:02.370Z,31.80
2023-02-12T11:42:02.408Z,31.80
2023-02-12T11:43:02.825Z,31.80
2023-02-12T11:44:02.502Z,31.80
2023-02-12T11:45:02.504Z,31.80
2023-02-12T11:46:02.787Z,31.70
2023-02-12T11:47:03.058Z,31.70
2023-02-12T11:48:03.643Z,31.70
2023-02-12T11:49:03.305Z,31.70
2023-02-12T11:50:03.310Z,31.70
2023-02-12T11:51:03.080Z,31.60
2023-02-12T11:52:03.453Z,31.60
2023-02-12T11:53:02.644Z,31.60
2023-02-12T11:54:02.811Z,31.60
2023-02-12T11:55:02.813Z,31.60
2023-02-12T11:56:03.005Z,31.20
2023-02-12T11:57:03.115Z,31.20
2023-02-12T11:58:02.990Z,31.20
2023-02-12T11:59:02.440Z,31.20
2023-02-12T12:00:02.459Z,31.20
2023-02-12T12:01:02.354Z,30.20
2023-02-12T12:02:02.360Z,30.20
2023-02-12T12:03:03.221Z,30.20
2023-02-12T12:04:02.825Z,30.20
2023-02-12T12:05:02.847Z,30.20
2023-02-12T12:06:03.041Z,28.40
2023-02-12T12:07:02.818Z,28.40
2023-02-12T12:08:03.606Z,28.40
2023-02-12T12:09:03.837Z,28.40
2023-02-12T12:10:03.410Z,28.40
2023-02-12T12:11:03.561Z,28.50
2023-02-12T12:12:03.402Z,28.50
2023-02-12T12:13:02.973Z,28.50
2023-02-12T12:14:03.132Z,28.50
2023-02-12T12:15:02.865Z,28.50
2023-02-12T12:16:03.148Z,28.20
2023-02-12T12:17:03.393Z,28.20
2023-02-12T12:18:03.061Z,28.20
2023-02-12T12:19:03.081Z,28.20
2023-02-12T12:20:02.982Z,28.20
2023-02-12T12:21:03.005Z,27.60
2023-02-12T12:22:02.922Z,27.60
2023-02-12T12:23:02.842Z,27.60
2023-02-12T12:24:02.940Z,27.60
2023-02-12T12:25:05.332Z,27.60
2023-02-12T12:26:02.945Z,26.40
2023-02-12T12:27:03.084Z,26.40
2023-02-12T12:28:03.374Z,26.40
2023-02-12T12:29:03.621Z,26.40
2023-02-12T12:30:03.114Z,26.40
2023-02-12T12:31:03.626Z,26.30
2023-02-12T12:32:03.491Z,26.30
2023-02-12T12:33:02.858Z,26.30
2023-02-12T12:34:02.584Z,26.30
2023-02-12T12:35:02.764Z,26.30
2023-02-12T12:36:02.513Z,23.70
2023-02-12T12:37:02.323Z,23.70
2023-02-12T12:38:02.911Z,23.70
2023-02-12T12:39:03.304Z,23.70
2023-02-12T12:40:02.684Z,23.70
2023-02-12T12:41:02.752Z,24.90
2023-02-12T12:42:03.122Z,24.90
2023-02-12T12:43:03.253Z,24.90
2023-02-12T12:44:03.764Z,24.90
2023-02-12T12:45:03.617Z,24.90
2023-02-12T12:46:03.598Z,22.50
2023-02-12T12:47:03.469Z,22.50
2023-02-12T12:48:02.933Z,22.50
2023-02-12T12:49:02.750Z,22.50
2023-02-12T12:50:03.244Z,22.50
2023-02-12T12:51:03.300Z,25.10
2023-02-12T12:52:02.941Z,25.10